createdAt,value
2023-04-15T00:00:59.385Z,1.98
2023-04-15T00:03:26.830Z,1.60
2023-04-15T00:05:54.329Z,1.20
2023-04-15T00:08:21.124Z,1.30
2023-04-15T00:10:49.430Z,1.45
2023-04-15T00:13:16.674Z,1.20
2023-04-15T00:15:43.567Z,1.20
2023-04-15T00:18:10.872Z,1.48
2023-04-15T00:20:38.410Z,1.20
2023-04-15T00:23:05.704Z,1.38
2023-04-15T00:25:33.154Z,1.30
2023-04-15T00:28:00.421Z,1.60
2023-04-15T00:30:27.676Z,1.13
2023-04-15T00:32:55.399Z,1.55
2023-04-15T00:35:24.110Z,1.27
2023-04-15T00:37:51.592Z,1.10
2023-04-15T00:40:20.999Z,1.40
2023-04-15T00:42:48.360Z,1.40
2023-04-15T00:45:15.768Z,1.30
2023-04-15T00:47:44.558Z,1.40
2023-04-15T00:50:12.849Z,1.40
2023-04-15T00:52:40.767Z,1.20
2023-04-15T00:55:08.794Z,1.08
2023-04-15T00:57:36.500Z,1.30
2023-04-15T01:00:13.786Z,1.45
2023-04-15T01:02:41.403Z,1.48
2023-04-15T01:05:08.615Z,1.65
2023-04-15T01:07:35.998Z,1.20
2023-04-15T01:10:06.314Z,1.05
2023-04-15T01:12:34.366Z,1.10
2023-04-15T01:15:02.481Z,1.38
2023-04-15T01:17:29.853Z,1.25
2023-04-15T01:20:00.702Z,1.35
2023-04-15T01:22:30.689Z,1.48
2023-04-15T01:25:08.285Z,1.40
2023-04-15T01:27:36.479Z,1.33
2023-04-15T01:30:05.417Z,1.40
2023-04-15T01:32:32.992Z,1.60
2023-04-15T01:35:00.252Z,1.52
2023-04-15T01:37:27.552Z,1.52
2023-04-15T01:39:54.818Z,1.45
2023-04-15T01:42:23.060Z,1.35
2023-04-15T01:44:50.103Z,1.50
2023-04-15T01:47:17.690Z,1.48
2023-04-15T01:49:44.986Z,1.42
2023-04-15T01:52:12.277Z,1.30
2023-04-15T01:54:41.003Z,1.38
2023-04-15T01:57:08.328Z,1.33
2023-04-15T01:59:36.232Z,1.35
2023-04-15T02:02:03.592Z,1.10
2023-04-15T02:04:31.002Z,1.08
2023-04-15T02:07:00.839Z,1.35
2023-04-15T02:09:28.146Z,1.30
2023-04-15T02:11:55.315Z,1.27
2023-04-15T02:14:22.610Z,1.20
2023-04-15T02:16:49.552Z,1.00
2023-04-15T02:19:17.627Z,1.17
2023-04-15T02:21:44.842Z,1.20
2023-04-15T02:24:12.417Z,1.30
2023-04-15T02:26:41.510Z,1.33
2023-04-15T02:29:08.878Z,1.15
2023-04-15T02:31:40.508Z,1.52
2023-04-15T02:34:08.275Z,1.40
2023-04-15T02:36:35.325Z,1.00
2023-04-15T02:39:03.265Z,1.30
2023-04-15T02:41:30.838Z,1.20
2023-04-15T02:43:58.916Z,1.10
2023-04-15T02:46:27.583Z,1.30
2023-04-15T02:48:54.955Z,1.83
2023-04-15T02:51:23.658Z,1.20
2023-04-15T02:53:51.259Z,1.20
2023-04-15T02:56:19.855Z,1.08
2023-04-15T02:58:50.522Z,1.10
2023-04-15T03:01:17.878Z,1.15
2023-04-15T03:03:45.711Z,0.85
2023-04-15T03:06:13.002Z,1.00
2023-04-15T03:08:40.256Z,1.40
2023-04-15T03:11:08.524Z,1.38
2023-04-15T03:13:36.927Z,1.23
2023-04-15T03:16:11.331Z,1.00
2023-04-15T03:18:38.854Z,1.15
2023-04-15T03:21:06.301Z,1.10
2023-04-15T03:23:36.291Z,1.23
2023-04-15T03:26:03.798Z,0.93
2023-04-15T03:28:32.843Z,1.00
2023-04-15T03:31:01.144Z,1.30
2023-04-15T03:33:28.849Z,1.30
2023-04-15T03:35:56.113Z,1.52
2023-04-15T03:38:23.172Z,1.20
2023-04-15T03:40:50.388Z,1.20
2023-04-15T03:43:17.241Z,1.15
2023-04-15T03:45:44.550Z,1.42
2023-04-15T03:48:17.593Z,1.60
2023-04-15T03:50:46.087Z,1.27
2023-04-15T03:53:13.386Z,1.42
2023-04-15T03:55:40.230Z,1.45
2023-04-15T03:58:07.462Z,1.00
2023-04-15T04:00:34.680Z,1.15
2023-04-15T04:03:02.137Z,1.35
2023-04-15T04:05:29.483Z,1.52
2023-04-15T04:07:56.688Z,1.27
2023-04-15T04:10:24.243Z,1.40
2023-04-15T04:12:51.089Z,1.42
2023-04-15T04:15:18.366Z,1.27
2023-04-15T04:17:45.769Z,1.15
2023-04-15T04:20:13.068Z,1.38
2023-04-15T04:22:41.685Z,1.20
2023-04-15T04:25:10.505Z,1.17
2023-04-15T04:27:38.308Z,1.00
2023-04-15T04:30:07.307Z,1.10
2023-04-15T04:32:34.672Z,1.17
2023-04-15T04:35:01.973Z,1.48
2023-04-15T04:37:28.885Z,1.30
2023-04-15T04:39:56.193Z,1.15
2023-04-15T04:42:23.151Z,1.20
2023-04-15T04:44:50.389Z,1.30
2023-04-15T04:47:17.317Z,1.10
2023-04-15T04:49:44.104Z,1.15
2023-04-15T04:52:11.689Z,1.15
2023-04-15T04:54:39.030Z,1.20
2023-04-15T04:57:07.876Z,1.00
2023-04-15T04:59:35.097Z,1.30
2023-04-15T05:02:03.387Z,0.95
2023-04-15T05:04:31.985Z,1.45
2023-04-15T05:06:59.809Z,1.33
2023-04-15T05:09:26.744Z,1.48
2023-04-15T05:11:53.619Z,1.63
2023-04-15T05:14:22.201Z,1.42
2023-04-15T05:16:50.539Z,1.40
2023-04-15T05:19:17.989Z,1.65
2023-04-15T05:21:44.848Z,1.20
2023-04-15T05:24:12.045Z,1.83
2023-04-15T05:26:38.936Z,1.30
2023-04-15T05:29:06.336Z,1.35
2023-04-15T05:31:33.663Z,1.60
2023-04-15T05:34:01.671Z,1.30
2023-04-15T05:36:28.821Z,1.25
2023-04-15T05:38:56.416Z,1.42
2023-04-15T05:41:24.031Z,1.63
2023-04-15T05:43:50.809Z,1.30
2023-04-15T05:46:17.735Z,1.30
2023-04-15T05:48:44.708Z,1.20
2023-04-15T05:51:11.977Z,1.38
2023-04-15T05:53:41.164Z,1.30
2023-04-15T05:56:08.548Z,1.25
2023-04-15T05:58:35.924Z,1.33
2023-04-15T06:01:03.521Z,1.33
2023-04-15T06:03:30.930Z,1.38
2023-04-15T06:05:57.889Z,1.30
2023-04-15T06:08:25.131Z,1.48
2023-04-15T06:10:52.395Z,1.73
2023-04-15T06:13:19.306Z,1.35
2023-04-15T06:15:46.552Z,1.30
2023-04-15T06:18:13.469Z,1.73
2023-04-15T06:20:41.754Z,1.20
2023-04-15T06:23:09.005Z,1.27
2023-04-15T06:25:36.244Z,1.52
2023-04-15T06:28:03.077Z,1.38
2023-04-15T06:30:30.679Z,1.30
2023-04-15T06:32:58.116Z,1.83
2023-04-15T06:35:25.419Z,1.80
2023-04-15T06:37:52.721Z,1.77
2023-04-15T06:40:20.106Z,1.63
2023-04-15T06:42:47.353Z,2.42
2023-04-15T06:45:16.288Z,3.17
2023-04-15T06:47:43.665Z,2.50
2023-04-15T06:50:11.535Z,2.00
2023-04-15T06:52:38.790Z,1.83
2023-04-15T06:55:07.230Z,1.65
2023-04-15T06:57:35.198Z,2.15
2023-04-15T07:00:02.515Z,1.70
2023-04-15T07:02:29.822Z,1.65
2023-04-15T07:04:57.012Z,2.03
2023-04-15T07:07:23.788Z,1.63
2023-04-15T07:09:51.310Z,1.77
2023-04-15T07:12:18.150Z,1.80
2023-04-15T07:14:45.455Z,1.60
2023-04-15T07:17:12.437Z,1.95
2023-04-15T07:19:39.730Z,1.75
2023-04-15T07:22:07.933Z,1.60
2023-04-15T07:24:35.587Z,1.95
2023-04-15T07:27:02.541Z,1.88
2023-04-15T07:29:29.761Z,2.00
2023-04-15T07:31:57.314Z,1.85
2023-04-15T07:34:24.618Z,1.80
2023-04-15T07:36:52.380Z,1.77
2023-04-15T07:39:19.570Z,2.33
2023-04-15T07:41:46.634Z,2.70
2023-04-15T07:44:13.696Z,2.83
2023-04-15T07:46:40.746Z,2.20
2023-04-15T07:49:07.762Z,2.55
2023-04-15T07:51:35.118Z,2.67
2023-04-15T07:54:01.917Z,2.92
2023-04-15T07:56:28.722Z,2.25
2023-04-15T07:58:55.609Z,2.30
2023-04-15T08:01:22.750Z,2.50
2023-04-15T08:03:49.834Z,2.63
2023-04-15T08:06:16.974Z,2.55
2023-04-15T08:08:44.023Z,2.85
2023-04-15T08:11:10.955Z,2.50
2023-04-15T08:13:37.821Z,2.33
2023-04-15T08:16:22.815Z,2.85
2023-04-15T08:18:51.532Z,2.65
2023-04-15T08:21:20.039Z,2.80
2023-04-15T08:23:50.190Z,2.75
2023-04-15T08:26:17.906Z,3.03
2023-04-15T08:28:46.073Z,3.00
2023-04-15T08:31:15.500Z,3.20
2023-04-15T08:33:42.727Z,2.38
2023-04-15T08:36:09.933Z,2.85
2023-04-15T08:38:37.406Z,2.80
2023-04-15T08:41:26.239Z,2.78
2023-04-15T08:44:02.683Z,2.78
2023-04-15T08:46:32.390Z,2.45
2023-04-15T08:48:59.543Z,2.42
2023-04-15T08:51:29.410Z,2.58
2023-04-15T08:53:56.576Z,2.45
2023-04-15T08:56:26.795Z,1.90
2023-04-15T08:58:54.006Z,2.10
2023-04-15T09:01:21.719Z,2.08
2023-04-15T09:03:50.529Z,1.80
2023-04-15T09:06:17.935Z,1.63
2023-04-15T09:08:44.933Z,1.85
2023-04-15T09:11:12.337Z,1.98
2023-04-15T09:13:40.017Z,1.77
2023-04-15T09:16:08.446Z,2.10
2023-04-15T09:18:37.112Z,1.45
2023-04-15T09:21:12.755Z,1.90
2023-04-15T09:23:58.151Z,1.50
2023-04-15T09:26:36.413Z,1.60
2023-04-15T09:29:10.971Z,1.85
2023-04-15T09:31:39.072Z,1.27
2023-04-15T09:34:06.979Z,1.35
2023-04-15T09:36:51.155Z,1.50
2023-04-15T09:39:18.471Z,1.25
2023-04-15T09:41:45.746Z,1.52
2023-04-15T09:44:26.782Z,1.30
2023-04-15T09:46:54.059Z,1.30
2023-04-15T09:49:21.004Z,1.30
2023-04-15T09:52:04.109Z,1.58
2023-04-15T09:54:37.074Z,1.25
2023-04-15T09:57:08.281Z,1.30
2023-04-15T09:59:35.612Z,1.13
2023-04-15T10:02:05.434Z,1.00
2023-04-15T10:04:35.915Z,1.02
2023-04-15T10:07:05.122Z,1.08
2023-04-15T10:09:33.685Z,1.20
2023-04-15T10:12:01.198Z,1.08
2023-04-15T10:14:32.560Z,0.93
2023-04-15T10:17:02.633Z,1.20
2023-04-15T10:19:33.246Z,1.75
2023-04-15T10:22:00.645Z,2.33
2023-04-15T10:24:28.332Z,1.10
2023-04-15T10:26:55.557Z,0.82
2023-04-15T10:29:25.847Z,0.88
2023-04-15T10:31:54.712Z,1.15
2023-04-15T10:34:23.062Z,0.85
2023-04-15T10:36:50.725Z,0.63
2023-04-15T10:39:38.702Z,0.80
2023-04-15T10:42:19.721Z,0.80
2023-04-15T10:44:53.395Z,1.30
2023-04-15T10:47:21.730Z,0.70
2023-04-15T10:50:07.460Z,0.77
2023-04-15T10:52:34.216Z,1.00
2023-04-15T10:55:20.057Z,1.13
2023-04-15T10:57:47.538Z,1.52
2023-04-15T11:00:15.986Z,1.13
2023-04-15T11:03:09.632Z,1.45
2023-04-15T11:05:42.588Z,1.00
2023-04-15T11:08:10.717Z,1.20
2023-04-15T11:10:37.522Z,1.13
2023-04-15T11:13:27.249Z,1.23
2023-04-15T11:15:58.354Z,1.30
2023-04-15T11:18:28.569Z,1.20
2023-04-15T11:21:00.401Z,1.10
2023-04-15T11:23:34.092Z,1.17
2023-04-15T11:26:02.693Z,0.98
2023-04-15T11:28:31.886Z,1.00
2023-04-15T11:31:05.934Z,0.90
2023-04-15T11:33:32.793Z,0.85
2023-04-15T11:35:59.695Z,1.10
2023-04-15T11:38:26.525Z,1.10
2023-04-15T11:40:53.361Z,0.80
2023-04-15T11:43:22.441Z,0.98
2023-04-15T11:45:55.562Z,1.50
2023-04-15T11:48:31.180Z,1.20
2023-04-15T11:51:01.980Z,1.08
2023-04-15T11:53:48.518Z,0.90
2023-04-15T11:56:21.521Z,1.38
2023-04-15T11:58:51.757Z,1.02
2023-04-15T12:01:18.829Z,0.75
2023-04-15T12:03:49.580Z,1.10
2023-04-15T12:06:20.765Z,0.73
2023-04-15T12:09:20.258Z,0.80
2023-04-15T12:11:53.104Z,0.90
2023-04-15T12:14:29.965Z,0.88
2023-04-15T12:17:03.095Z,1.05
2023-04-15T12:19:32.708Z,1.00
2023-04-15T12:22:08.860Z,1.15
2023-04-15T12:24:37.326Z,1.05
2023-04-15T12:27:05.681Z,0.85
2023-04-15T12:29:34.315Z,1.10
2023-04-15T12:32:10.869Z,1.00
2023-04-15T12:34:51.758Z,1.00
2023-04-15T12:37:18.898Z,0.70
2023-04-15T12:39:49.467Z,0.70
2023-04-15T12:42:17.765Z,0.60
2023-04-15T12:44:44.948Z,0.60
2023-04-15T12:47:12.297Z,0.70
2023-04-15T12:49:39.938Z,0.82
2023-04-15T12:52:07.145Z,0.85
2023-04-15T12:54:34.806Z,1.08
2023-04-15T12:57:05.941Z,0.90
2023-04-15T12:59:34.125Z,0.90
2023-04-15T13:02:02.786Z,1.00
2023-04-15T13:04:33.174Z,1.00
2023-04-15T13:07:00.653Z,1.25
2023-04-15T13:09:27.539Z,1.20
2023-04-15T13:11:54.734Z,1.02
2023-04-15T13:14:22.193Z,1.10
2023-04-15T13:16:48.991Z,1.15
2023-04-15T13:19:16.380Z,1.02
2023-04-15T13:21:43.206Z,1.20
2023-04-15T13:24:10.619Z,1.10
2023-04-15T13:26:37.906Z,1.15
2023-04-15T13:29:05.304Z,0.93
2023-04-15T13:31:32.630Z,1.00
2023-04-15T13:33:59.580Z,1.30
2023-04-15T13:36:27.416Z,1.40
2023-04-15T13:38:54.386Z,1.00
2023-04-15T13:41:21.913Z,1.15
2023-04-15T13:43:48.824Z,0.95
2023-04-15T13:46:16.658Z,1.15
2023-04-15T13:48:43.995Z,1.30
2023-04-15T13:51:10.800Z,0.90
2023-04-15T13:53:39.076Z,1.00
2023-04-15T13:56:10.314Z,1.10
2023-04-15T13:58:38.181Z,1.00
2023-04-15T14:01:07.082Z,0.88
2023-04-15T14:03:38.362Z,0.98
2023-04-15T14:06:06.457Z,0.85
2023-04-15T14:08:33.787Z,0.93
2023-04-15T14:11:01.116Z,0.80
2023-04-15T14:13:28.081Z,0.90
2023-04-15T14:15:55.418Z,0.93
2023-04-15T14:18:22.700Z,1.05
2023-04-15T14:20:49.938Z,0.90
2023-04-15T14:23:17.166Z,1.17
2023-04-15T14:25:45.080Z,0.75
2023-04-15T14:28:14.043Z,1.20
2023-04-15T14:30:40.935Z,0.90
2023-04-15T14:33:08.203Z,1.00
2023-04-15T14:35:35.618Z,0.80
2023-04-15T14:38:02.829Z,0.77
2023-04-15T14:40:29.692Z,0.85
2023-04-15T14:42:56.476Z,0.80
2023-04-15T14:45:23.847Z,0.93
2023-04-15T14:47:50.865Z,0.95
2023-04-15T14:50:18.273Z,0.70
2023-04-15T14:52:45.431Z,0.70
2023-04-15T14:55:13.176Z,0.75
2023-04-15T14:57:41.389Z,1.10
2023-04-15T15:00:09.926Z,0.75
2023-04-15T15:02:39.762Z,0.70
2023-04-15T15:05:08.754Z,0.60
2023-04-15T15:07:37.188Z,0.75
2023-04-15T15:10:04.911Z,0.60
2023-04-15T15:12:32.815Z,0.80
2023-04-15T15:15:01.607Z,0.80
2023-04-15T15:17:30.401Z,0.93
2023-04-15T15:19:57.755Z,0.65
2023-04-15T15:22:26.213Z,0.70
2023-04-15T15:24:53.828Z,0.90
2023-04-15T15:27:21.143Z,0.80
2023-04-15T15:29:49.071Z,0.80
2023-04-15T15:32:16.045Z,0.70
2023-04-15T15:34:43.256Z,0.85
2023-04-15T15:37:10.256Z,0.90
2023-04-15T15:39:37.493Z,0.68
2023-04-15T15:42:04.448Z,0.80
2023-04-15T15:44:33.532Z,0.80
2023-04-15T15:47:01.798Z,0.88
2023-04-15T15:49:28.954Z,0.70
2023-04-15T15:51:56.520Z,0.90
2023-04-15T15:54:23.950Z,0.80
2023-04-15T15:56:51.188Z,0.73
2023-04-15T15:59:18.551Z,0.90
2023-04-15T16:01:45.842Z,0.80
2023-04-15T16:04:13.335Z,0.90
2023-04-15T16:06:40.899Z,0.77
2023-04-15T16:09:08.137Z,0.70
2023-04-15T16:11:35.404Z,0.90
2023-04-15T16:14:02.661Z,0.95
2023-04-15T16:16:30.045Z,0.95
2023-04-15T16:19:00.247Z,1.13
2023-04-15T16:21:27.717Z,0.93
2023-04-15T16:23:55.019Z,0.80
2023-04-15T16:26:22.318Z,0.90
2023-04-15T16:28:49.944Z,0.68
2023-04-15T16:31:16.808Z,0.80
2023-04-15T16:33:44.053Z,0.90
2023-04-15T16:36:11.366Z,0.95
2023-04-15T16:38:38.161Z,1.00
2023-04-15T16:41:05.456Z,0.90
2023-04-15T16:43:32.836Z,0.82
2023-04-15T16:46:00.138Z,1.20
2023-04-15T16:48:27.254Z,0.95
2023-04-15T16:50:54.614Z,1.08
2023-04-15T16:53:22.110Z,1.00
2023-04-15T16:55:49.504Z,1.25
2023-04-15T16:58:16.872Z,1.40
2023-04-15T17:00:44.158Z,1.30
2023-04-15T17:03:11.600Z,1.20
2023-04-15T17:05:38.537Z,1.20
2023-04-15T17:08:06.171Z,1.58
2023-04-15T17:10:33.042Z,1.10
2023-04-15T17:13:00.362Z,1.10
2023-04-15T17:15:27.686Z,1.40
2023-04-15T17:17:54.752Z,1.20
2023-04-15T17:20:21.837Z,1.63
2023-04-15T17:22:49.162Z,1.20
2023-04-15T17:25:16.589Z,1.77
2023-04-15T17:27:43.785Z,1.45
2023-04-15T17:30:10.785Z,1.42
2023-04-15T17:32:40.026Z,1.70
2023-04-15T17:35:07.960Z,1.98
2023-04-15T17:37:34.926Z,1.50
2023-04-15T17:40:02.727Z,2.00
2023-04-15T17:42:29.684Z,1.77
2023-04-15T17:44:56.872Z,1.58
2023-04-15T17:47:23.949Z,1.52
2023-04-15T17:49:51.209Z,1.70
2023-04-15T17:52:18.116Z,1.50
2023-04-15T17:54:46.139Z,1.50
2023-04-15T17:57:17.147Z,1.95
2023-04-15T17:59:45.155Z,1.90
2023-04-15T18:02:13.265Z,1.92
2023-04-15T18:04:41.739Z,2.00
2023-04-15T18:07:08.870Z,1.95
2023-04-15T18:09:37.765Z,1.88
2023-04-15T18:12:07.551Z,1.80
2023-04-15T18:14:35.207Z,1.85
2023-04-15T18:17:05.814Z,1.67
2023-04-15T18:19:33.506Z,1.80
2023-04-15T18:22:00.960Z,2.05
2023-04-15T18:24:28.094Z,1.95
2023-04-15T18:26:56.615Z,2.20
2023-04-15T18:29:25.444Z,2.38
2023-04-15T18:31:53.089Z,1.70
2023-04-15T18:34:20.423Z,2.08
2023-04-15T18:36:47.369Z,2.00
2023-04-15T18:39:14.639Z,1.75
2023-04-15T18:41:41.779Z,2.13
2023-04-15T18:44:09.171Z,2.38
2023-04-15T18:46:36.454Z,1.75
2023-04-15T18:49:04.336Z,2.40
2023-04-15T18:51:32.713Z,2.00
2023-04-15T18:53:59.531Z,2.10
2023-04-15T18:56:27.130Z,2.17
2023-04-15T18:59:26.052Z,4.00
2023-04-15T19:01:41.624Z,2.35
2023-04-15T19:04:10.038Z,2.20
2023-04-15T19:06:37.481Z,2.42
2023-04-15T19:09:05.534Z,2.13
2023-04-15T19:11:33.480Z,2.40
2023-04-15T19:14:01.382Z,2.58
2023-04-15T19:16:28.229Z,2.70
2023-04-15T19:18:55.504Z,2.45
2023-04-15T19:21:22.795Z,2.00
2023-04-15T19:23:50.283Z,2.40
2023-04-15T19:26:17.099Z,2.30
2023-04-15T19:28:44.368Z,1.98
2023-04-15T19:31:11.698Z,2.08
2023-04-15T19:33:38.797Z,2.45
2023-04-15T19:36:06.954Z,2.83
2023-04-15T19:38:35.990Z,2.47
2023-04-15T19:41:03.370Z,2.33
2023-04-15T19:43:32.219Z,2.28
2023-04-15T19:45:59.333Z,2.42
2023-04-15T19:48:26.225Z,1.83
2023-04-15T19:50:54.804Z,2.25
2023-04-15T19:53:21.641Z,2.42
2023-04-15T19:55:48.905Z,2.80
2023-04-15T19:58:16.605Z,3.30
2023-04-15T20:00:43.488Z,3.13
2023-04-15T20:03:10.951Z,3.25
2023-04-15T20:05:38.360Z,3.38
2023-04-15T20:08:05.651Z,3.55
2023-04-15T20:10:32.971Z,2.85
2023-04-15T20:12:59.798Z,3.65
2023-04-15T20:15:27.321Z,2.95
2023-04-15T20:17:54.623Z,3.22
2023-04-15T20:20:22.148Z,3.40
2023-04-15T20:22:49.155Z,2.42
2023-04-15T20:25:16.288Z,2.70
2023-04-15T20:27:43.193Z,3.00
2023-04-15T20:30:10.541Z,2.80
2023-04-15T20:32:38.670Z,2.55
2023-04-15T20:35:06.835Z,2.88
2023-04-15T20:37:34.136Z,2.60
2023-04-15T20:40:02.170Z,2.90
2023-04-15T20:42:34.393Z,2.45
2023-04-15T20:45:02.344Z,2.60
2023-04-15T20:47:29.863Z,2.35
2023-04-15T20:49:57.733Z,2.42
2023-04-15T20:52:24.938Z,2.60
2023-04-15T20:54:52.187Z,2.88
2023-04-15T20:57:20.387Z,2.80
2023-04-15T20:59:47.687Z,2.60
2023-04-15T21:02:15.053Z,2.08
2023-04-15T21:04:42.501Z,2.15
2023-04-15T21:07:10.137Z,2.15
2023-04-15T21:09:41.216Z,2.00
2023-04-15T21:12:08.311Z,2.00
2023-04-15T21:14:36.975Z,2.08
2023-04-15T21:17:09.193Z,2.08
2023-04-15T21:19:37.729Z,1.98
2023-04-15T21:22:05.248Z,1.75
2023-04-15T21:24:32.606Z,1.85
2023-04-15T21:26:59.857Z,1.85
2023-04-15T21:29:27.101Z,2.05
2023-04-15T21:31:54.365Z,1.85
2023-04-15T21:34:21.362Z,1.73
2023-04-15T21:36:48.255Z,1.98
2023-04-15T21:39:15.544Z,1.77
2023-04-15T21:41:42.730Z,2.00
2023-04-15T21:44:10.529Z,1.92
2023-04-15T21:46:38.388Z,1.80
2023-04-15T21:49:07.080Z,1.90
2023-04-15T21:51:34.543Z,1.98
2023-04-15T21:54:01.803Z,1.80
2023-04-15T21:56:28.713Z,1.50
2023-04-15T21:58:57.522Z,1.80
2023-04-15T22:01:25.105Z,1.67
2023-04-15T22:03:52.478Z,1.50
2023-04-15T22:06:19.490Z,1.60
2023-04-15T22:08:56.231Z,1.50
2023-04-15T22:11:28.753Z,1.60
2023-04-15T22:13:57.171Z,1.52
2023-04-15T22:16:25.916Z,1.63
2023-04-15T22:18:53.591Z,1.92
2023-04-15T22:21:20.920Z,1.63
2023-04-15T22:23:48.665Z,1.90
2023-04-15T22:26:15.927Z,2.10
2023-04-15T22:28:43.218Z,1.80
2023-04-15T22:31:10.729Z,1.75
2023-04-15T22:33:38.790Z,2.20
2023-04-15T22:36:06.360Z,1.65
2023-04-15T22:38:33.580Z,2.20
2023-04-15T22:41:00.814Z,2.15
2023-04-15T22:43:27.866Z,2.22
2023-04-15T22:45:55.466Z,1.98
2023-04-15T22:48:23.203Z,1.83
2023-04-15T22:50:50.262Z,2.10
2023-04-15T22:53:17.799Z,2.00
2023-04-15T22:55:46.672Z,1.83
2023-04-15T22:58:14.062Z,2.28
2023-04-15T23:00:41.066Z,2.00
2023-04-15T23:03:08.259Z,1.55
2023-04-15T23:05:35.764Z,2.28
2023-04-15T23:08:03.315Z,2.08
2023-04-15T23:10:30.363Z,1.98
2023-04-15T23:12:57.602Z,2.10
2023-04-15T23:15:24.882Z,1.92
2023-04-15T23:17:52.158Z,2.03
2023-04-15T23:20:19.417Z,2.08
2023-04-15T23:22:46.679Z,1.98
2023-04-15T23:25:13.917Z,2.13
2023-04-15T23:27:41.355Z,2.60
2023-04-15T23:30:08.898Z,2.08
2023-04-15T23:32:36.425Z,2.65
2023-04-15T23:35:03.552Z,2.10
2023-04-15T23:37:33.957Z,2.22
2023-04-15T23:40:01.009Z,2.22
2023-04-15T23:42:28.699Z,2.05
2023-04-15T23:44:56.255Z,2.30
2023-04-15T23:47:23.226Z,2.22
2023-04-15T23:49:50.527Z,2.42
2023-04-15T23:52:17.422Z,2.35
2023-04-15T23:54:44.690Z,2.65
2023-04-15T23:57:11.671Z,2.38
2023-04-15T23:59:38.901Z,2.17
